createdAt,value
2023-04-13T00:00:48.691Z,99492.28
2023-04-13T00:03:17.610Z,99490.97
2023-04-13T00:05:46.791Z,99494.59
2023-04-13T00:08:17.100Z,99497.31
2023-04-13T00:10:46.064Z,99505.16
2023-04-13T00:13:14.828Z,99505.81
2023-04-13T00:15:45.483Z,99502.22
2023-04-13T00:18:12.598Z,99502.56
2023-04-13T00:20:41.736Z,99503.34
2023-04-13T00:23:08.724Z,99499.28
2023-04-13T00:25:38.229Z,99505.59
2023-04-13T00:28:06.429Z,99503.97
2023-04-13T00:30:36.822Z,99502.28
2023-04-13T00:33:04.088Z,99501.53
2023-04-13T00:35:33.749Z,99499.72
2023-04-13T00:38:04.282Z,99493.78
2023-04-13T00:40:31.649Z,99487.03
2023-04-13T00:43:00.585Z,99489.53
2023-04-13T00:45:28.245Z,99490.75
2023-04-13T00:47:58.077Z,99491.53
2023-04-13T00:50:25.802Z,99494.72
2023-04-13T00:52:55.214Z,99485.84
2023-04-13T00:55:22.504Z,99491.59
2023-04-13T00:57:53.515Z,99488.09
2023-04-13T01:00:21.945Z,99485.41
2023-04-13T01:02:50.679Z,99499.88
2023-04-13T01:05:20.477Z,99495.81
2023-04-13T01:08:28.574Z,99499.50
2023-04-13T01:11:12.879Z,99501.13
2023-04-13T01:13:56.084Z,99501.53
2023-04-13T01:16:36.775Z,99515.72
2023-04-13T01:19:08.119Z,99507.97
2023-04-13T01:21:37.697Z,99509.28
2023-04-13T01:24:17.894Z,99505.78
2023-04-13T01:26:58.509Z,99505.94
2023-04-13T01:29:27.761Z,99506.13
2023-04-13T01:31:56.543Z,99510.97
2023-04-13T01:34:26.736Z,99504.44
2023-04-13T01:36:54.231Z,99505.94
2023-04-13T01:39:22.180Z,99501.53
2023-04-13T01:41:51.595Z,99508.81
2023-04-13T01:44:21.151Z,99515.03
2023-04-13T01:46:57.859Z,99510.34
2023-04-13T01:49:28.228Z,99508.50
2023-04-13T01:51:57.506Z,99512.00
2023-04-13T01:54:27.360Z,99515.94
2023-04-13T01:57:00.098Z,99513.09
2023-04-13T01:59:29.454Z,99518.16
2023-04-13T02:01:58.647Z,99504.69
2023-04-13T02:04:25.784Z,99511.75
2023-04-13T02:06:53.279Z,99510.09
2023-04-13T02:09:20.198Z,99511.75
2023-04-13T02:11:47.953Z,99509.59
2023-04-13T02:14:15.703Z,99508.09
2023-04-13T02:16:42.623Z,99508.91
2023-04-13T02:19:14.851Z,99506.06
2023-04-13T02:21:42.233Z,99506.91
2023-04-13T02:24:11.818Z,99508.25
2023-04-13T02:26:42.262Z,99511.94
2023-04-13T02:29:10.109Z,99515.97
2023-04-13T02:31:37.585Z,99512.59
2023-04-13T02:34:11.678Z,99515.13
2023-04-13T02:36:39.426Z,99512.94
2023-04-13T02:39:06.429Z,99514.78
2023-04-13T02:41:36.535Z,99517.81
2023-04-13T02:44:03.465Z,99522.19
2023-04-13T02:46:33.095Z,99520.84
2023-04-13T02:49:00.431Z,99526.72
2023-04-13T02:51:29.532Z,99518.00
2023-04-13T02:53:58.836Z,99505.38
2023-04-13T02:56:28.684Z,99525.56
2023-04-13T02:58:55.726Z,99518.84
2023-04-13T03:01:25.067Z,99516.16
2023-04-13T03:03:52.285Z,99522.19
2023-04-13T03:06:24.136Z,99514.97
2023-04-13T03:08:52.770Z,99517.66
2023-04-13T03:11:23.412Z,99516.63
2023-04-13T03:13:54.242Z,99509.06
2023-04-13T03:16:26.403Z,99509.91
2023-04-13T03:18:54.510Z,99516.94
2023-04-13T03:21:21.492Z,99516.47
2023-04-13T03:23:50.906Z,99517.50
2023-04-13T03:26:20.939Z,99512.78
2023-04-13T03:28:50.000Z,99510.78
2023-04-13T03:31:17.655Z,99513.47
2023-04-13T03:33:44.598Z,99517.16
2023-04-13T03:36:12.272Z,99513.28
2023-04-13T03:38:39.266Z,99518.50
2023-04-13T03:41:06.871Z,99513.47
2023-04-13T03:43:36.541Z,99512.13
2023-04-13T03:46:09.110Z,99518.66
2023-04-13T03:48:39.785Z,99519.16
2023-04-13T03:51:07.167Z,99517.66
2023-04-13T03:53:38.760Z,99513.28
2023-04-13T03:56:06.471Z,99513.47
2023-04-13T03:58:33.452Z,99513.47
2023-04-13T04:01:00.738Z,99506.91
2023-04-13T04:03:27.872Z,99516.44
2023-04-13T04:05:54.911Z,99508.41
2023-04-13T04:08:22.168Z,99506.22
2023-04-13T04:10:53.662Z,99504.34
2023-04-13T04:13:23.657Z,99506.72
2023-04-13T04:15:53.578Z,99502.03
2023-04-13T04:18:23.707Z,99508.75
2023-04-13T04:20:57.857Z,99513.63
2023-04-13T04:23:28.162Z,99511.78
2023-04-13T04:26:02.776Z,99510.09
2023-04-13T04:28:30.582Z,99509.41
2023-04-13T04:31:01.140Z,99514.31
2023-04-13T04:33:28.151Z,99515.28
2023-04-13T04:35:55.065Z,99517.47
2023-04-13T04:38:24.452Z,99522.69
2023-04-13T04:40:57.558Z,99516.47
2023-04-13T04:43:30.501Z,99515.81
2023-04-13T04:46:03.195Z,99515.81
2023-04-13T04:48:31.060Z,99526.56
2023-04-13T04:51:03.452Z,99532.78
2023-04-13T04:53:30.444Z,99531.59
2023-04-13T04:55:57.412Z,99535.63
2023-04-13T04:58:24.354Z,99532.94
2023-04-13T05:00:58.416Z,99534.47
2023-04-13T05:03:25.806Z,99529.41
2023-04-13T05:05:55.854Z,99534.97
2023-04-13T05:08:25.143Z,99541.84
2023-04-13T05:10:52.116Z,99537.66
2023-04-13T05:13:21.741Z,99545.06
2023-04-13T05:15:52.089Z,99539.16
2023-04-13T05:18:19.216Z,99547.41
2023-04-13T05:20:48.204Z,99554.81
2023-04-13T05:23:18.217Z,99554.31
2023-04-13T05:25:45.179Z,99553.78
2023-04-13T05:28:12.440Z,99559.50
2023-04-13T05:30:39.348Z,99558.84
2023-04-13T05:33:08.178Z,99555.13
2023-04-13T05:35:37.526Z,99553.13
2023-04-13T05:38:07.042Z,99557.47
2023-04-13T05:40:35.251Z,99555.44
2023-04-13T05:43:02.345Z,99559.81
2023-04-13T05:45:29.886Z,99563.78
2023-04-13T05:47:59.323Z,99570.81
2023-04-13T05:50:27.893Z,99572.41
2023-04-13T05:52:54.830Z,99571.69
2023-04-13T05:55:23.652Z,99562.91
2023-04-13T05:57:51.433Z,99572.78
2023-04-13T06:00:20.686Z,99572.44
2023-04-13T06:02:50.916Z,99569.78
2023-04-13T06:05:24.305Z,99568.16
2023-04-13T06:07:51.714Z,99559.22
2023-04-13T06:10:23.877Z,99565.94
2023-04-13T06:12:53.344Z,99552.41
2023-04-13T06:15:20.818Z,99555.81
2023-04-13T06:17:51.616Z,99561.56
2023-04-13T06:20:20.191Z,99567.25
2023-04-13T06:22:47.435Z,99566.41
2023-04-13T06:25:17.086Z,99569.56
2023-04-13T06:27:47.164Z,99565.81
2023-04-13T06:30:14.949Z,99568.09
2023-04-13T06:32:47.430Z,99570.34
2023-04-13T06:35:15.530Z,99560.66
2023-04-13T06:37:42.821Z,99575.66
2023-04-13T06:40:12.533Z,99555.63
2023-04-13T06:42:41.427Z,99564.38
2023-04-13T06:45:09.896Z,99554.75
2023-04-13T06:47:39.863Z,99559.72
2023-04-13T06:50:13.972Z,99572.22
2023-04-13T06:52:47.630Z,99573.03
2023-04-13T06:55:19.387Z,99579.66
2023-04-13T06:57:46.469Z,99572.22
2023-04-13T07:00:28.197Z,99582.66
2023-04-13T07:03:02.457Z,99571.31
2023-04-13T07:05:30.057Z,99578.59
2023-04-13T07:07:57.228Z,99572.28
2023-04-13T07:10:24.794Z,99580.41
2023-04-13T07:12:51.798Z,99576.06
2023-04-13T07:15:21.199Z,99574.72
2023-04-13T07:17:52.508Z,99561.66
2023-04-13T07:20:19.682Z,99578.25
2023-04-13T07:22:49.189Z,99586.47
2023-04-13T07:25:16.436Z,99585.56
2023-04-13T07:27:43.322Z,99588.94
2023-04-13T07:30:10.761Z,99572.97
2023-04-13T07:32:41.031Z,99577.53
2023-04-13T07:35:08.614Z,99577.94
2023-04-13T07:37:38.112Z,99585.38
2023-04-13T07:40:06.892Z,99587.81
2023-04-13T07:42:33.885Z,99582.69
2023-04-13T07:45:01.970Z,99582.22
2023-04-13T07:47:31.623Z,99578.59
2023-04-13T07:50:01.077Z,99591.78
2023-04-13T07:52:28.914Z,99586.84
2023-04-13T07:54:58.327Z,99601.75
2023-04-13T07:57:25.651Z,99607.53
2023-04-13T07:59:52.761Z,99614.63
2023-04-13T08:02:22.594Z,99619.09
2023-04-13T08:04:50.025Z,99633.16
2023-04-13T08:07:17.023Z,99620.25
2023-04-13T08:09:44.033Z,99618.28
2023-04-13T08:12:13.733Z,99628.53
2023-04-13T08:14:43.183Z,99624.38
2023-04-13T08:17:13.119Z,99618.41
2023-04-13T08:19:40.509Z,99625.47
2023-04-13T08:22:07.485Z,99632.91
2023-04-13T08:24:36.371Z,99630.59
2023-04-13T08:27:10.591Z,99637.16
2023-04-13T08:29:40.060Z,99618.09
2023-04-13T08:32:09.749Z,99631.88
2023-04-13T08:34:36.981Z,99641.47
2023-04-13T08:37:03.996Z,99655.72
2023-04-13T08:39:33.703Z,99661.38
2023-04-13T08:42:01.893Z,99663.03
2023-04-13T08:44:29.295Z,99666.78
2023-04-13T08:46:56.643Z,99661.59
2023-04-13T08:49:24.636Z,99686.69
2023-04-13T08:51:59.727Z,99677.91
2023-04-13T08:54:28.624Z,99676.44
2023-04-13T08:56:59.461Z,99675.31
2023-04-13T08:59:29.323Z,99684.25
2023-04-13T09:01:58.293Z,99683.78
2023-04-13T09:04:34.941Z,99674.47
2023-04-13T09:07:04.702Z,99672.03
2023-04-13T09:09:33.942Z,99683.53
2023-04-13T09:12:01.026Z,99685.84
2023-04-13T09:14:28.647Z,99669.72
2023-04-13T09:16:55.908Z,99685.56
2023-04-13T09:19:33.420Z,99686.72
2023-04-13T09:22:16.642Z,99688.22
2023-04-13T09:24:43.665Z,99684.13
2023-04-13T09:27:21.768Z,99695.44
2023-04-13T09:30:01.060Z,99696.63
2023-04-13T09:32:31.311Z,99714.47
2023-04-13T09:34:58.286Z,99711.78
2023-04-13T09:37:28.259Z,99729.94
2023-04-13T09:40:14.243Z,99721.59
2023-04-13T09:42:57.111Z,99726.66
2023-04-13T09:45:36.485Z,99731.69
2023-04-13T09:48:20.721Z,99741.97
2023-04-13T09:51:02.891Z,99730.84
2023-04-13T09:53:45.805Z,99730.94
2023-04-13T09:56:13.923Z,99737.09
2023-04-13T09:58:45.792Z,99741.63
2023-04-13T10:01:16.688Z,99746.28
2023-04-13T10:03:44.476Z,99746.63
2023-04-13T10:06:17.705Z,99749.25
2023-04-13T10:08:46.386Z,99757.97
2023-04-13T10:11:15.260Z,99752.00
2023-04-13T10:14:02.843Z,99773.59
2023-04-13T10:17:05.609Z,99764.56
2023-04-13T10:19:43.442Z,99779.13
2023-04-13T10:22:13.929Z,99781.13
2023-04-13T10:24:41.505Z,99781.69
2023-04-13T10:27:24.306Z,99780.91
2023-04-13T10:29:53.574Z,99783.25
2023-04-13T10:32:28.267Z,99790.22
2023-04-13T10:34:55.965Z,99795.03
2023-04-13T10:37:28.710Z,99801.72
2023-04-13T10:40:08.041Z,99808.88
2023-04-13T10:45:27.260Z,99834.06
2023-04-13T10:47:56.017Z,99827.00
2023-04-13T10:50:27.530Z,99824.63
2023-04-13T10:53:26.532Z,99825.13
2023-04-13T10:55:54.022Z,99837.72
2023-04-13T10:58:20.945Z,99821.53
2023-04-13T11:00:48.251Z,99811.78
2023-04-13T11:03:17.251Z,99825.25
2023-04-13T11:05:57.632Z,99837.94
2023-04-13T11:08:28.098Z,99831.00
2023-04-13T11:10:57.183Z,99834.66
2023-04-13T11:13:29.137Z,99838.41
2023-04-13T11:16:08.058Z,99832.66
2023-04-13T11:18:37.252Z,99830.75
2023-04-13T11:21:07.947Z,99829.50
2023-04-13T11:23:36.050Z,99822.03
2023-04-13T11:26:06.246Z,99829.84
2023-04-13T11:28:42.468Z,99826.06
2023-04-13T11:31:12.848Z,99830.38
2023-04-13T11:33:40.863Z,99830.94
2023-04-13T11:36:11.956Z,99838.41
2023-04-13T11:38:41.573Z,99845.66
2023-04-13T11:41:16.580Z,99849.81
2023-04-13T11:43:48.774Z,99849.25
2023-04-13T11:46:27.085Z,99845.81
2023-04-13T11:48:54.742Z,99856.44
2023-04-13T11:51:25.584Z,99867.78
2023-04-13T11:53:53.144Z,99863.41
2023-04-13T11:56:20.800Z,99871.03
2023-04-13T11:58:51.505Z,99866.81
2023-04-13T12:01:27.204Z,99866.81
2023-04-13T12:04:15.350Z,99865.00
2023-04-13T12:06:53.184Z,99869.88
2023-04-13T12:09:22.149Z,99882.22
2023-04-13T12:12:07.741Z,99868.81
2023-04-13T12:19:57.240Z,99876.91
2023-04-13T12:22:44.016Z,99894.44
2023-04-13T12:25:24.464Z,99875.13
2023-04-13T12:27:53.679Z,99884.97
2023-04-13T12:30:27.576Z,99896.25
2023-04-13T12:32:56.322Z,99894.59
2023-04-13T12:35:23.691Z,99899.59
2023-04-13T12:37:50.720Z,99888.97
2023-04-13T12:40:18.571Z,99902.53
2023-04-13T12:42:49.470Z,99912.22
2023-04-13T12:45:16.962Z,99911.28
2023-04-13T12:47:46.398Z,99901.81
2023-04-13T12:50:16.982Z,99921.06
2023-04-13T12:52:44.439Z,99906.34
2023-04-13T12:55:13.578Z,99914.94
2023-04-13T12:57:40.832Z,99913.97
2023-04-13T13:00:12.197Z,99923.41
2023-04-13T13:02:41.477Z,99914.22
2023-04-13T13:05:11.080Z,99921.63
2023-04-13T13:07:37.988Z,99926.66
2023-04-13T13:10:15.057Z,99926.88
2023-04-13T13:12:53.025Z,99938.06
2023-04-13T13:15:22.726Z,99935.13
2023-04-13T13:17:51.958Z,99938.09
2023-04-13T13:20:18.995Z,99936.97
2023-04-13T13:22:47.516Z,99943.16
2023-04-13T13:25:16.254Z,99948.78
2023-04-13T13:28:10.369Z,99941.16
2023-04-13T13:30:32.615Z,99945.50
2023-04-13T13:33:02.251Z,99947.94
2023-04-13T13:35:31.711Z,99951.63
2023-04-13T13:37:59.291Z,99957.38
2023-04-13T13:40:26.753Z,99962.91
2023-04-13T13:42:54.186Z,99967.09
2023-04-13T13:45:21.927Z,99967.91
2023-04-13T13:47:54.485Z,99967.25
2023-04-13T13:50:24.420Z,99977.41
2023-04-13T13:53:02.255Z,99982.47
2023-04-13T13:55:31.663Z,99989.03
2023-04-13T13:57:59.336Z,99985.69
2023-04-13T14:00:27.255Z,99994.97
2023-04-13T14:02:57.034Z,99988.88
2023-04-13T14:05:24.555Z,99993.38
2023-04-13T14:07:51.703Z,99993.81
2023-04-13T14:10:18.977Z,100001.44
2023-04-13T14:12:49.606Z,100004.00
2023-04-13T14:15:20.596Z,100000.03
2023-04-13T14:17:55.810Z,100009.03
2023-04-13T14:20:35.471Z,100013.47
2023-04-13T14:23:02.477Z,100012.78
2023-04-13T14:25:31.873Z,100015.19
2023-04-13T14:27:58.852Z,100015.59
2023-04-13T14:30:31.253Z,100022.91
2023-04-13T14:33:01.281Z,100021.16
2023-04-13T14:35:29.486Z,100025.63
2023-04-13T14:37:56.854Z,100033.22
2023-04-13T14:40:24.365Z,100031.66
2023-04-13T14:42:55.037Z,100045.19
2023-04-13T14:45:25.193Z,100038.63
2023-04-13T14:47:54.118Z,100036.16
2023-04-13T14:50:21.337Z,100050.41
2023-04-13T14:52:50.430Z,100042.22
2023-04-13T14:55:17.812Z,100047.03
2023-04-13T14:57:45.781Z,100038.06
2023-04-13T15:00:21.260Z,100039.03
2023-04-13T15:02:50.664Z,100040.09
2023-04-13T15:05:18.931Z,100050.81
2023-04-13T15:07:46.230Z,100064.28
2023-04-13T15:10:13.230Z,100059.25
2023-04-13T15:12:41.112Z,100064.91
2023-04-13T15:15:09.167Z,100067.22
2023-04-13T15:17:36.414Z,100073.31
2023-04-13T15:20:07.451Z,100083.34
2023-04-13T15:22:38.985Z,100104.13
2023-04-13T15:25:06.864Z,100116.28
2023-04-13T15:27:36.376Z,100128.16
2023-04-13T15:30:04.010Z,100140.03
2023-04-13T15:32:36.816Z,100132.88
2023-04-13T15:35:04.040Z,100145.00
2023-04-13T15:37:35.487Z,100142.63
2023-04-13T15:40:08.008Z,100145.09
2023-04-13T15:42:34.859Z,100138.78
2023-04-13T15:45:03.110Z,100152.31
2023-04-13T15:47:30.160Z,100147.56
2023-04-13T15:49:57.156Z,100153.41
2023-04-13T15:52:24.385Z,100150.19
2023-04-13T15:54:51.465Z,100154.34
2023-04-13T15:57:20.777Z,100168.06
2023-04-13T15:59:49.779Z,100169.81
2023-04-13T16:02:16.926Z,100173.47
2023-04-13T16:04:46.318Z,100185.34
2023-04-13T16:07:14.459Z,100177.63
2023-04-13T16:09:47.115Z,100186.44
2023-04-13T16:12:17.667Z,100189.19
2023-04-13T16:14:47.150Z,100203.78
2023-04-13T16:17:15.631Z,100213.41
2023-04-13T16:19:46.582Z,100213.19
2023-04-13T16:22:13.644Z,100212.06
2023-04-13T16:24:43.079Z,100209.50
2023-04-13T16:27:12.572Z,100206.94
2023-04-13T16:29:41.638Z,100210.34
2023-04-13T16:32:09.082Z,100221.75
2023-04-13T16:34:40.662Z,100219.09
2023-04-13T16:37:15.574Z,100222.63
2023-04-13T16:39:44.296Z,100222.97
2023-04-13T16:42:12.233Z,100217.41
2023-04-13T16:44:47.440Z,100221.28
2023-04-13T16:47:14.609Z,100228.44
2023-04-13T16:49:46.138Z,100214.97
2023-04-13T16:52:13.146Z,100223.31
2023-04-13T16:54:43.989Z,100226.41
2023-04-13T16:57:11.969Z,100221.28
2023-04-13T16:59:39.072Z,100235.81
2023-04-13T17:02:15.363Z,100233.19
2023-04-13T17:04:57.049Z,100227.34
2023-04-13T17:07:28.221Z,100240.09
2023-04-13T17:09:55.859Z,100237.38
2023-04-13T17:12:23.359Z,100245.78
2023-04-13T17:14:52.947Z,100242.66
2023-04-13T17:17:22.293Z,100248.25
2023-04-13T17:19:52.280Z,100250.69
2023-04-13T17:22:19.708Z,100246.78
2023-04-13T17:24:46.944Z,100253.47
2023-04-13T17:27:16.511Z,100252.19
2023-04-13T17:29:43.575Z,100264.53
2023-04-13T17:32:10.819Z,100274.47
2023-04-13T17:34:37.968Z,100280.47
2023-04-13T17:37:07.625Z,100283.19
2023-04-13T17:39:36.084Z,100283.84
2023-04-13T17:42:03.246Z,100291.88
2023-04-13T17:44:30.396Z,100296.56
2023-04-13T17:46:57.396Z,100302.44
2023-04-13T17:49:27.912Z,100308.75
2023-04-13T17:51:54.856Z,100300.06
2023-04-13T17:54:21.755Z,100320.53
2023-04-13T17:56:48.701Z,100312.59
2023-04-13T17:59:18.629Z,100317.94
2023-04-13T18:01:45.985Z,100324.94
2023-04-13T18:04:15.716Z,100327.53
2023-04-13T18:06:45.317Z,100335.25
2023-04-13T18:09:14.860Z,100338.03
2023-04-13T18:11:41.949Z,100333.31
2023-04-13T18:14:15.170Z,100346.19
2023-04-13T18:16:42.658Z,100343.75
2023-04-13T18:19:16.571Z,100350.09
2023-04-13T18:21:45.781Z,100359.44
2023-04-13T18:24:12.717Z,100356.13
2023-04-13T18:26:39.980Z,100356.19
2023-04-13T18:29:09.642Z,100359.03
2023-04-13T18:31:39.209Z,100356.19
2023-04-13T18:34:10.524Z,100361.50
2023-04-13T18:36:37.529Z,100356.06
2023-04-13T18:39:04.485Z,100367.72
2023-04-13T18:41:33.846Z,100379.50
2023-04-13T18:44:03.282Z,100381.50
2023-04-13T18:46:33.673Z,100385.69
2023-04-13T18:49:01.372Z,100388.75
2023-04-13T18:51:30.737Z,100388.66
2023-04-13T18:53:59.948Z,100394.94
2023-04-13T18:56:27.059Z,100397.47
2023-04-13T18:58:56.148Z,100403.00
2023-04-13T19:01:23.071Z,100403.25
2023-04-13T19:03:52.386Z,100404.34
2023-04-13T19:06:22.005Z,100414.09
2023-04-13T19:08:49.065Z,100418.31
2023-04-13T19:11:17.575Z,100422.59
2023-04-13T19:13:46.250Z,100423.88
2023-04-13T19:16:16.108Z,100432.81
2023-04-13T19:18:43.034Z,100427.44
2023-04-13T19:21:12.494Z,100422.72
2023-04-13T19:23:40.564Z,100425.25
2023-04-13T19:26:07.702Z,100428.06
2023-04-13T19:28:39.521Z,100429.16
2023-04-13T19:31:09.038Z,100435.00
2023-04-13T19:33:36.033Z,100437.44
2023-04-13T19:36:05.758Z,100447.97
2023-04-13T19:38:38.326Z,100436.78
2023-04-13T19:41:05.275Z,100448.75
2023-04-13T19:43:32.377Z,100449.72
2023-04-13T19:45:59.565Z,100459.19
2023-04-13T19:48:28.734Z,100459.03
2023-04-13T19:50:56.029Z,100459.69
2023-04-13T19:53:23.051Z,100456.97
2023-04-13T19:55:53.210Z,100464.75
2023-04-13T19:58:20.276Z,100453.81
2023-04-13T20:00:47.405Z,100465.22
2023-04-13T20:03:20.533Z,100471.88
2023-04-13T20:05:49.697Z,100476.00
2023-04-13T20:08:17.457Z,100477.31
2023-04-13T20:10:44.610Z,100475.06
2023-04-13T20:13:11.774Z,100472.06
2023-04-13T20:15:39.545Z,100475.44
2023-04-13T20:18:09.275Z,100477.13
2023-04-13T20:20:42.501Z,100476.00
2023-04-13T20:23:14.728Z,100481.94
2023-04-13T20:25:44.180Z,100480.81
2023-04-13T20:28:11.279Z,100486.22
2023-04-13T20:30:39.505Z,100486.94
2023-04-13T20:33:09.076Z,100495.56
2023-04-13T20:35:38.653Z,100490.78
2023-04-13T20:38:06.158Z,100496.59
2023-04-13T20:40:37.883Z,100495.50
2023-04-13T20:43:11.247Z,100501.19
2023-04-13T20:45:42.998Z,100493.09
2023-04-13T20:50:47.675Z,100496.53
2023-04-13T20:53:17.795Z,100506.13
2023-04-13T20:55:47.155Z,100498.88
2023-04-13T20:58:17.181Z,100504.31
2023-04-13T21:00:44.960Z,100505.53
2023-04-13T21:03:17.288Z,100500.34
2023-04-13T21:05:44.522Z,100507.63
2023-04-13T21:08:14.892Z,100509.44
2023-04-13T21:10:44.244Z,100513.84
2023-04-13T21:13:16.294Z,100516.03
2023-04-13T21:15:43.509Z,100499.63
2023-04-13T21:18:13.595Z,100497.25
2023-04-13T21:20:44.077Z,100501.19
2023-04-13T21:23:11.093Z,100504.66
2023-04-13T21:25:38.076Z,100490.28
2023-04-13T21:28:08.348Z,100490.78
2023-04-13T21:30:35.696Z,100487.84
2023-04-13T21:33:02.716Z,100483.34
2023-04-13T21:35:29.749Z,100492.00
2023-04-13T21:37:56.670Z,100498.44
2023-04-13T21:40:24.888Z,100510.63
2023-04-13T21:42:54.849Z,100509.00
2023-04-13T21:45:21.866Z,100510.03
2023-04-13T21:47:48.914Z,100508.34
2023-04-13T21:50:18.887Z,100505.31
2023-04-13T21:52:45.859Z,100509.16
2023-04-13T21:55:18.933Z,100502.88
2023-04-13T21:57:49.616Z,100507.69
2023-04-13T22:00:18.065Z,100517.19
2023-04-13T22:02:45.165Z,100511.09
2023-04-13T22:05:16.694Z,100508.72
2023-04-13T22:07:48.422Z,100515.16
2023-04-13T22:10:15.523Z,100513.66
2023-04-13T22:12:42.474Z,100506.69
2023-04-13T22:15:09.905Z,100508.56
2023-04-13T22:17:39.222Z,100508.91
2023-04-13T22:20:07.206Z,100518.88
2023-04-13T22:22:36.434Z,100520.94
2023-04-13T22:25:06.194Z,100520.59
2023-04-13T22:27:36.670Z,100520.59
2023-04-13T22:30:03.832Z,100520.94
2023-04-13T22:32:33.188Z,100519.41
2023-04-13T22:35:02.686Z,100516.88
2023-04-13T22:37:35.807Z,100520.91
2023-04-13T22:40:04.588Z,100532.06
2023-04-13T22:42:36.627Z,100527.84
2023-04-13T22:45:06.895Z,100530.41
2023-04-13T22:47:33.910Z,100522.28
2023-04-13T22:50:01.563Z,100536.81
2023-04-13T22:52:28.530Z,100539.03
2023-04-13T22:54:57.787Z,100542.91
2023-04-13T22:57:27.358Z,100540.34
2023-04-13T22:59:59.017Z,100547.94
2023-04-13T23:02:28.700Z,100556.94
2023-04-13T23:05:02.110Z,100548.50
2023-04-13T23:07:34.279Z,100557.47
2023-04-13T23:10:01.710Z,100557.63
2023-04-13T23:12:29.376Z,100566.41
2023-04-13T23:14:59.117Z,100565.88
2023-04-13T23:17:26.463Z,100571.09
2023-04-13T23:19:54.869Z,100577.38
2023-04-13T23:22:22.380Z,100579.06
2023-04-13T23:24:49.982Z,100583.09
2023-04-13T23:27:18.132Z,100589.84
2023-04-13T23:29:54.916Z,100585.50
2023-04-13T23:32:24.296Z,100590.72
2023-04-13T23:34:51.363Z,100584.97
2023-04-13T23:37:18.346Z,100591.19
2023-04-13T23:39:48.773Z,100586.66
2023-04-13T23:42:18.062Z,100595.47
2023-04-13T23:44:47.284Z,100581.06
2023-04-13T23:47:15.276Z,100592.16
2023-04-13T23:49:46.733Z,100584.66
2023-04-13T23:52:16.086Z,100583.03
2023-04-13T23:54:43.090Z,100584.50
2023-04-13T23:57:11.917Z,100585.22
2023-04-13T23:59:39.162Z,100583.59
